sensor_id;sensor_type;location;lat;lon;timestamp;pressure;altitude;pressure_sealevel;temperature;humidity
7802;BME280;3945;48.952;9.506;2023-05-07T00:00:27;97856.28;;;14.71;78.50
7802;BME280;3945;48.952;9.506;2023-05-07T00:02:54;97857.63;;;14.68;78.44
7802;BME280;3945;48.952;9.506;2023-05-07T00:05:21;97852.56;;;14.62;78.88
7802;BME280;3945;48.952;9.506;2023-05-07T00:07:47;97846.91;;;14.53;78.82
7802;BME280;3945;48.952;9.506;2023-05-07T00:10:15;97835.69;;;14.46;79.19
7802;BME280;3945;48.952;9.506;2023-05-07T00:12:41;97837.56;;;14.40;78.69
7802;BME280;3945;48.952;9.506;2023-05-07T00:15:08;97842.38;;;14.38;79.18
7802;BME280;3945;48.952;9.506;2023-05-07T00:17:34;97838.31;;;14.36;79.05
7802;BME280;3945;48.952;9.506;2023-05-07T00:20:00;97830.84;;;14.38;78.85
7802;BME280;3945;48.952;9.506;2023-05-07T00:22:28;97834.56;;;14.32;78.69
7802;BME280;3945;48.952;9.506;2023-05-07T00:24:55;97826.53;;;14.32;77.69
7802;BME280;3945;48.952;9.506;2023-05-07T00:27:22;97825.97;;;14.35;77.83
7802;BME280;3945;48.952;9.506;2023-05-07T00:29:49;97830.28;;;14.36;77.62
7802;BME280;3945;48.952;9.506;2023-05-07T00:32:15;97837.25;;;14.37;78.02
7802;BME280;3945;48.952;9.506;2023-05-07T00:34:42;97833.75;;;14.36;78.01
7802;BME280;3945;48.952;9.506;2023-05-07T00:37:08;97829.47;;;14.35;78.03
7802;BME280;3945;48.952;9.506;2023-05-07T00:39:35;97826.00;;;14.30;78.22
7802;BME280;3945;48.952;9.506;2023-05-07T00:42:01;97821.16;;;14.27;78.28
7802;BME280;3945;48.952;9.506;2023-05-07T00:44:30;97823.84;;;14.22;78.41
7802;BME280;3945;48.952;9.506;2023-05-07T00:46:56;97819.56;;;14.26;77.53
7802;BME280;3945;48.952;9.506;2023-05-07T00:49:23;97818.50;;;14.32;76.60
7802;BME280;3945;48.952;9.506;2023-05-07T00:51:51;97815.28;;;14.30;77.39
7802;BME280;3945;48.952;9.506;2023-05-07T00:54:17;97821.44;;;14.35;76.07
7802;BME280;3945;48.952;9.506;2023-05-07T00:56:44;97816.41;;;14.39;76.99
7802;BME280;3945;48.952;9.506;2023-05-07T00:59:11;97816.13;;;14.40;77.10
7802;BME280;3945;48.952;9.506;2023-05-07T01:01:38;97815.03;;;14.41;77.61
7802;BME280;3945;48.952;9.506;2023-05-07T01:04:05;97813.94;;;14.37;77.87
7802;BME280;3945;48.952;9.506;2023-05-07T01:06:31;97804.06;;;14.33;77.87
7802;BME280;3945;48.952;9.506;2023-05-07T01:08:58;97802.97;;;14.29;78.20
7802;BME280;3945;48.952;9.506;2023-05-07T01:11:24;97809.13;;;14.24;77.61
7802;BME280;3945;48.952;9.506;2023-05-07T01:13:51;97804.84;;;14.23;77.81
7802;BME280;3945;48.952;9.506;2023-05-07T01:16:17;97804.03;;;14.18;76.85
7802;BME280;3945;48.952;9.506;2023-05-07T01:18:45;97798.16;;;14.21;77.32
7802;BME280;3945;48.952;9.506;2023-05-07T01:21:13;97813.16;;;14.32;76.09
7802;BME280;3945;48.952;9.506;2023-05-07T01:23:42;97803.00;;;14.39;76.54
7802;BME280;3945;48.952;9.506;2023-05-07T01:26:10;97802.47;;;14.52;74.81
7802;BME280;3945;48.952;9.506;2023-05-07T01:28:36;97803.25;;;14.58;75.35
7802;BME280;3945;48.952;9.506;2023-05-07T01:31:03;97805.66;;;14.64;74.70
7802;BME280;3945;48.952;9.506;2023-05-07T01:33:31;97804.34;;;14.62;74.63
7802;BME280;3945;48.952;9.506;2023-05-07T01:35:59;97803.25;;;14.63;74.84
7802;BME280;3945;48.952;9.506;2023-05-07T01:38:27;97793.63;;;14.57;75.61
7802;BME280;3945;48.952;9.506;2023-05-07T01:40:55;97797.38;;;14.51;75.60
7802;BME280;3945;48.952;9.506;2023-05-07T01:43:21;97791.47;;;14.49;75.35
7802;BME280;3945;48.952;9.506;2023-05-07T01:45:48;97794.16;;;14.49;75.42
7802;BME280;3945;48.952;9.506;2023-05-07T01:48:14;97795.25;;;14.48;75.55
7802;BME280;3945;48.952;9.506;2023-05-07T01:50:41;97799.53;;;14.43;75.73
7802;BME280;3945;48.952;9.506;2023-05-07T01:53:08;97798.97;;;14.41;76.15
7802;BME280;3945;48.952;9.506;2023-05-07T01:55:34;97802.44;;;14.37;76.63
7802;BME280;3945;48.952;9.506;2023-05-07T01:58:03;97803.50;;;14.36;76.54
7802;BME280;3945;48.952;9.506;2023-05-07T02:00:29;97807.81;;;14.32;76.63
7802;BME280;3945;48.952;9.506;2023-05-07T02:02:56;97799.47;;;14.28;76.88
7802;BME280;3945;48.952;9.506;2023-05-07T02:05:22;97798.16;;;14.21;77.32
7802;BME280;3945;48.952;9.506;2023-05-07T02:07:48;97791.19;;;14.15;77.41
7802;BME280;3945;48.952;9.506;2023-05-07T02:10:15;97791.75;;;14.12;78.02
7802;BME280;3945;48.952;9.506;2023-05-07T02:12:41;97787.97;;;14.07;78.04
7802;BME280;3945;48.952;9.506;2023-05-07T02:15:10;97793.31;;;14.02;78.68
7802;BME280;3945;48.952;9.506;2023-05-07T02:20:05;97794.91;;;13.93;79.44
7802;BME280;3945;48.952;9.506;2023-05-07T02:22:32;97793.00;;;13.84;79.79
7802;BME280;3945;48.952;9.506;2023-05-07T02:24:58;97794.31;;;13.76;80.09
7802;BME280;3945;48.952;9.506;2023-05-07T02:27:24;97801.28;;;13.72;80.10
7802;BME280;3945;48.952;9.506;2023-05-07T02:29:51;97799.41;;;13.67;80.23
7802;BME280;3945;48.952;9.506;2023-05-07T02:32:18;97789.78;;;13.66;80.32
7802;BME280;3945;48.952;9.506;2023-05-07T02:34:45;97801.53;;;13.60;80.63
7802;BME280;3945;48.952;9.506;2023-05-07T02:37:11;97798.31;;;13.58;80.61
7802;BME280;3945;48.952;9.506;2023-05-07T02:39:37;97798.56;;;13.57;80.53
7802;BME280;3945;48.952;9.506;2023-05-07T02:42:04;97803.66;;;13.53;80.76
7802;BME280;3945;48.952;9.506;2023-05-07T02:44:30;97807.91;;;13.49;81.17
7802;BME280;3945;48.952;9.506;2023-05-07T02:46:56;97808.44;;;13.46;81.16
7802;BME280;3945;48.952;9.506;2023-05-07T02:49:24;97810.00;;;13.42;81.61
7802;BME280;3945;48.952;9.506;2023-05-07T02:51:51;97808.69;;;13.40;81.93
7802;BME280;3945;48.952;9.506;2023-05-07T02:54:18;97806.78;;;13.35;82.31
7802;BME280;3945;48.952;9.506;2023-05-07T02:56:44;97806.22;;;13.33;81.80
7802;BME280;3945;48.952;9.506;2023-05-07T02:59:10;97802.78;;;13.33;81.59
7802;BME280;3945;48.952;9.506;2023-05-07T03:01:37;97800.88;;;13.33;81.75
7802;BME280;3945;48.952;9.506;2023-05-07T03:04:03;97796.34;;;13.34;81.71
7802;BME280;3945;48.952;9.506;2023-05-07T03:06:31;97805.41;;;13.27;82.28
7802;BME280;3945;48.952;9.506;2023-05-07T03:08:57;97803.78;;;13.26;82.57
7802;BME280;3945;48.952;9.506;2023-05-07T03:11:23;97801.91;;;13.22;82.17
7802;BME280;3945;48.952;9.506;2023-05-07T03:13:50;97792.81;;;13.18;82.87
7802;BME280;3945;48.952;9.506;2023-05-07T03:16:16;97789.59;;;13.16;82.39
7802;BME280;3945;48.952;9.506;2023-05-07T03:18:43;97789.03;;;13.14;82.38
7802;BME280;3945;48.952;9.506;2023-05-07T03:21:09;97784.72;;;13.08;83.03
7802;BME280;3945;48.952;9.506;2023-05-07T03:23:37;97784.97;;;13.06;83.20
7802;BME280;3945;48.952;9.506;2023-05-07T03:26:03;97785.75;;;13.02;82.86
7802;BME280;3945;48.952;9.506;2023-05-07T03:28:29;97788.69;;;13.00;83.02
7802;BME280;3945;48.952;9.506;2023-05-07T03:30:56;97788.69;;;13.00;83.10
7802;BME280;3945;48.952;9.506;2023-05-07T03:33:23;97783.84;;;12.97;83.30
7802;BME280;3945;48.952;9.506;2023-05-07T03:35:49;97786.25;;;12.94;84.01
7802;BME280;3945;48.952;9.506;2023-05-07T03:38:15;97787.03;;;12.89;83.71
7802;BME280;3945;48.952;9.506;2023-05-07T03:40:43;97788.59;;;12.85;84.23
7802;BME280;3945;48.952;9.506;2023-05-07T03:43:09;97786.72;;;12.80;83.61
7802;BME280;3945;48.952;9.506;2023-05-07T03:45:36;97784.28;;;12.79;84.29
7802;BME280;3945;48.952;9.506;2023-05-07T03:48:02;97778.44;;;12.82;83.71
7802;BME280;3945;48.952;9.506;2023-05-07T03:50:29;97775.78;;;12.82;84.38
7802;BME280;3945;48.952;9.506;2023-05-07T03:52:55;97788.31;;;12.81;83.80
7802;BME280;3945;48.952;9.506;2023-05-07T03:55:21;97789.38;;;12.80;84.02
7802;BME280;3945;48.952;9.506;2023-05-07T03:57:49;97786.97;;;12.79;83.74
7802;BME280;3945;48.952;9.506;2023-05-07T04:00:15;97790.13;;;12.76;83.96
7802;BME280;3945;48.952;9.506;2023-05-07T04:02:42;97790.13;;;12.76;83.95
7802;BME280;3945;48.952;9.506;2023-05-07T04:05:08;97784.78;;;12.76;84.04
7802;BME280;3945;48.952;9.506;2023-05-07T04:07:35;97790.69;;;12.78;84.02
7802;BME280;3945;48.952;9.506;2023-05-07T04:10:01;97798.19;;;12.81;84.00
7802;BME280;3945;48.952;9.506;2023-05-07T04:12:28;97790.72;;;12.83;83.84
7802;BME280;3945;48.952;9.506;2023-05-07T04:14:55;97802.19;;;12.83;84.12
7802;BME280;3945;48.952;9.506;2023-05-07T04:17:22;97806.22;;;12.86;83.82
7802;BME280;3945;48.952;9.506;2023-05-07T04:19:48;97801.69;;;12.86;83.48
7802;BME280;3945;48.952;9.506;2023-05-07T04:22:14;97814.00;;;12.87;84.19
7802;BME280;3945;48.952;9.506;2023-05-07T04:24:40;97817.19;;;12.89;84.06
7802;BME280;3945;48.952;9.506;2023-05-07T04:27:07;97805.44;;;12.90;83.87
7802;BME280;3945;48.952;9.506;2023-05-07T04:29:33;97816.94;;;12.91;84.13
7802;BME280;3945;48.952;9.506;2023-05-07T04:32:01;97821.47;;;12.90;85.37
7802;BME280;3945;48.952;9.506;2023-05-07T04:34:27;97830.03;;;12.93;84.72
7802;BME280;3945;48.952;9.506;2023-05-07T04:36:54;97826.06;;;12.95;84.54
7802;BME280;3945;48.952;9.506;2023-05-07T04:39:20;97826.88;;;13.01;84.47
7802;BME280;3945;48.952;9.506;2023-05-07T04:41:46;97825.56;;;13.03;85.09
7802;BME280;3945;48.952;9.506;2023-05-07T04:44:13;97820.25;;;13.08;85.31
7802;BME280;3945;48.952;9.506;2023-05-07T04:46:39;97811.44;;;13.08;85.68
7802;BME280;3945;48.952;9.506;2023-05-07T04:49:07;97807.69;;;13.09;86.39
7802;BME280;3945;48.952;9.506;2023-05-07T04:51:33;97811.69;;;13.11;86.15
7802;BME280;3945;48.952;9.506;2023-05-07T04:54:00;97816.56;;;13.14;86.42
7802;BME280;3945;48.952;9.506;2023-05-07T04:56:27;97814.19;;;13.18;86.62
7802;BME280;3945;48.952;9.506;2023-05-07T04:58:53;97820.88;;;13.25;86.74
7802;BME280;3945;48.952;9.506;2023-05-07T05:01:20;97821.75;;;13.31;87.04
7802;BME280;3945;48.952;9.506;2023-05-07T05:03:46;97824.44;;;13.41;87.17
7802;BME280;3945;48.952;9.506;2023-05-07T05:06:16;97822.88;;;13.50;86.74
7802;BME280;3945;48.952;9.506;2023-05-07T05:08:43;97829.34;;;13.59;87.28
7802;BME280;3945;48.952;9.506;2023-05-07T05:11:09;97833.88;;;13.69;86.98
7802;BME280;3945;48.952;9.506;2023-05-07T05:13:36;97843.03;;;13.78;87.24
7802;BME280;3945;48.952;9.506;2023-05-07T05:16:02;97847.88;;;13.86;87.11
7802;BME280;3945;48.952;9.506;2023-05-07T05:18:29;97841.44;;;13.92;86.96
7802;BME280;3945;48.952;9.506;2023-05-07T05:20:55;97846.84;;;13.97;86.13
7802;BME280;3945;48.952;9.506;2023-05-07T05:23:23;97845.22;;;14.01;85.85
7802;BME280;3945;48.952;9.506;2023-05-07T05:25:49;97842.84;;;14.10;82.61
7802;BME280;3945;48.952;9.506;2023-05-07T05:28:15;97842.31;;;14.23;80.88
7802;BME280;3945;48.952;9.506;2023-05-07T05:30:41;97840.72;;;14.32;80.73
7802;BME280;3945;48.952;9.506;2023-05-07T05:33:08;97836.47;;;14.41;80.54
7802;BME280;3945;48.952;9.506;2023-05-07T05:35:34;97840.22;;;14.45;80.00
7802;BME280;3945;48.952;9.506;2023-05-07T05:38:01;97838.88;;;14.48;80.32
7802;BME280;3945;48.952;9.506;2023-05-07T05:40:28;97848.78;;;14.53;80.37
7802;BME280;3945;48.952;9.506;2023-05-07T05:42:55;97852.00;;;14.60;80.44
7802;BME280;3945;48.952;9.506;2023-05-07T05:45:21;97853.59;;;14.71;79.91
7802;BME280;3945;48.952;9.506;2023-05-07T05:47:47;97857.06;;;14.87;79.77
7802;BME280;3945;48.952;9.506;2023-05-07T05:50:14;97846.63;;;15.05;79.70
7802;BME280;3945;48.952;9.506;2023-05-07T05:52:40;97857.00;;;15.27;79.21
7802;BME280;3945;48.952;9.506;2023-05-07T05:55:07;97841.34;;;15.49;78.59
7802;BME280;3945;48.952;9.506;2023-05-07T05:57:35;97843.44;;;15.73;78.34
7802;BME280;3945;48.952;9.506;2023-05-07T06:00:02;97842.25;;;15.99;77.63
7802;BME280;3945;48.952;9.506;2023-05-07T06:02:28;97840.47;;;16.23;75.62
7802;BME280;3945;48.952;9.506;2023-05-07T06:04:55;97850.75;;;16.50;75.84
7802;BME280;3945;48.952;9.506;2023-05-07T06:07:21;97847.63;;;16.77;74.10
7802;BME280;3945;48.952;9.506;2023-05-07T06:09:47;97842.78;;;17.03;73.05
7802;BME280;3945;48.952;9.506;2023-05-07T06:12:14;97846.81;;;17.05;71.21
7802;BME280;3945;48.952;9.506;2023-05-07T06:14:43;97846.00;;;17.05;71.25
7802;BME280;3945;48.952;9.506;2023-05-07T06:17:09;97843.50;;;17.13;71.05
7802;BME280;3945;48.952;9.506;2023-05-07T06:19:36;97834.97;;;17.30;70.76
7802;BME280;3945;48.952;9.506;2023-05-07T06:22:02;97839.81;;;17.52;71.39
7802;BME280;3945;48.952;9.506;2023-05-07T06:24:28;97849.59;;;17.72;69.30
7802;BME280;3945;48.952;9.506;2023-05-07T06:26:55;97853.22;;;17.81;68.83
7802;BME280;3945;48.952;9.506;2023-05-07T06:29:23;97850.75;;;17.84;69.51
7802;BME280;3945;48.952;9.506;2023-05-07T06:31:52;97842.97;;;17.83;69.72
7802;BME280;3945;48.952;9.506;2023-05-07T06:34:18;97846.47;;;17.83;69.16
7802;BME280;3945;48.952;9.506;2023-05-07T06:36:44;97852.75;;;17.98;68.71
7802;BME280;3945;48.952;9.506;2023-05-07T06:39:11;97863.13;;;18.23;68.84
7802;BME280;3945;48.952;9.506;2023-05-07T06:41:37;97857.16;;;18.45;67.47
7802;BME280;3945;48.952;9.506;2023-05-07T06:44:04;97862.78;;;18.48;67.53
7802;BME280;3945;48.952;9.506;2023-05-07T06:46:30;97851.63;;;18.55;68.30
7802;BME280;3945;48.952;9.506;2023-05-07T06:48:58;97869.06;;;18.62;68.45
7802;BME280;3945;48.952;9.506;2023-05-07T06:51:24;97861.91;;;18.71;68.26
7802;BME280;3945;48.952;9.506;2023-05-07T06:53:51;97869.81;;;18.82;69.24
7802;BME280;3945;48.952;9.506;2023-05-07T06:56:18;97869.41;;;18.88;69.23
7802;BME280;3945;48.952;9.506;2023-05-07T06:58:44;97864.97;;;18.97;70.16
7802;BME280;3945;48.952;9.506;2023-05-07T07:01:11;97859.31;;;19.13;71.23
7802;BME280;3945;48.952;9.506;2023-05-07T07:03:37;97857.84;;;19.47;71.82
7802;BME280;3945;48.952;9.506;2023-05-07T07:06:05;97859.56;;;19.71;67.91
7802;BME280;3945;48.952;9.506;2023-05-07T07:08:31;97867.94;;;19.83;67.29
7802;BME280;3945;48.952;9.506;2023-05-07T07:10:58;97858.53;;;19.94;66.37
7802;BME280;3945;48.952;9.506;2023-05-07T07:13:24;97860.19;;;20.04;66.70
7802;BME280;3945;48.952;9.506;2023-05-07T07:15:51;97852.41;;;20.02;66.38
7802;BME280;3945;48.952;9.506;2023-05-07T07:18:17;97847.69;;;20.08;66.48
7802;BME280;3945;48.952;9.506;2023-05-07T07:20:43;97843.34;;;20.20;65.12
7802;BME280;3945;48.952;9.506;2023-05-07T07:23:11;97842.75;;;20.37;64.92
7802;BME280;3945;48.952;9.506;2023-05-07T07:25:38;97845.09;;;20.75;65.86
7802;BME280;3945;48.952;9.506;2023-05-07T07:28:04;97848.38;;;21.16;66.38
7802;BME280;3945;48.952;9.506;2023-05-07T07:30:31;97847.25;;;21.57;65.03
7802;BME280;3945;48.952;9.506;2023-05-07T07:32:57;97841.97;;;22.00;63.32
7802;BME280;3945;48.952;9.506;2023-05-07T07:35:27;97846.16;;;22.40;61.47
7802;BME280;3945;48.952;9.506;2023-05-07T07:37:53;97844.03;;;22.72;59.69
7802;BME280;3945;48.952;9.506;2023-05-07T07:40:21;97847.03;;;23.05;61.89
7802;BME280;3945;48.952;9.506;2023-05-07T07:42:47;97848.53;;;23.40;58.25
7802;BME280;3945;48.952;9.506;2023-05-07T07:45:14;97838.38;;;23.58;56.72
7802;BME280;3945;48.952;9.506;2023-05-07T07:47:40;97845.13;;;23.52;57.38
7802;BME280;3945;48.952;9.506;2023-05-07T07:50:07;97842.78;;;23.33;57.88
7802;BME280;3945;48.952;9.506;2023-05-07T07:52:33;97851.00;;;23.16;59.23
7802;BME280;3945;48.952;9.506;2023-05-07T07:54:59;97845.56;;;23.16;59.40
7802;BME280;3945;48.952;9.506;2023-05-07T07:57:27;97851.88;;;23.37;55.38
7802;BME280;3945;48.952;9.506;2023-05-07T07:59:53;97855.41;;;23.76;57.65
7802;BME280;3945;48.952;9.506;2023-05-07T08:02:20;97851.94;;;24.17;52.55
7802;BME280;3945;48.952;9.506;2023-05-07T08:04:46;97850.34;;;24.57;55.81
7802;BME280;3945;48.952;9.506;2023-05-07T08:07:13;97849.66;;;24.81;49.94
7802;BME280;3945;48.952;9.506;2023-05-07T08:09:39;97850.13;;;24.83;49.20
7802;BME280;3945;48.952;9.506;2023-05-07T08:12:06;97855.66;;;24.74;48.87
7802;BME280;3945;48.952;9.506;2023-05-07T08:14:34;97858.72;;;24.52;49.23
7802;BME280;3945;48.952;9.506;2023-05-07T08:17:01;97852.31;;;24.36;51.55
7802;BME280;3945;48.952;9.506;2023-05-07T08:19:27;97862.66;;;24.22;49.33
7802;BME280;3945;48.952;9.506;2023-05-07T08:21:54;97862.06;;;24.07;53.08
7802;BME280;3945;48.952;9.506;2023-05-07T08:24:20;97866.97;;;23.93;53.67
7802;BME280;3945;48.952;9.506;2023-05-07T08:26:47;97868.81;;;23.81;50.87
7802;BME280;3945;48.952;9.506;2023-05-07T08:29:14;97868.84;;;23.72;51.62
7802;BME280;3945;48.952;9.506;2023-05-07T08:31:42;97859.81;;;23.59;53.44
7802;BME280;3945;48.952;9.506;2023-05-07T08:34:08;97855.34;;;23.55;53.53
7802;BME280;3945;48.952;9.506;2023-05-07T08:36:34;97855.94;;;23.69;55.79
7802;BME280;3945;48.952;9.506;2023-05-07T08:39:01;97859.94;;;23.92;56.89
7802;BME280;3945;48.952;9.506;2023-05-07T08:41:27;97853.38;;;24.23;54.72
7802;BME280;3945;48.952;9.506;2023-05-07T08:43:54;97854.69;;;24.37;49.71
7802;BME280;3945;48.952;9.506;2023-05-07T08:46:23;97862.06;;;24.37;50.65
7802;BME280;3945;48.952;9.506;2023-05-07T08:48:52;97852.66;;;24.34;50.10
7802;BME280;3945;48.952;9.506;2023-05-07T08:51:19;97854.91;;;24.32;50.79
7802;BME280;3945;48.952;9.506;2023-05-07T08:53:46;97858.34;;;24.41;53.36
7802;BME280;3945;48.952;9.506;2023-05-07T08:56:13;97855.63;;;24.62;55.99
7802;BME280;3945;48.952;9.506;2023-05-07T08:58:40;97855.84;;;24.90;52.73
7802;BME280;3945;48.952;9.506;2023-05-07T09:01:07;97858.03;;;24.97;49.25
7802;BME280;3945;48.952;9.506;2023-05-07T09:03:33;97858.19;;;25.12;49.37
7802;BME280;3945;48.952;9.506;2023-05-07T09:06:01;97856.88;;;25.43;49.64
7802;BME280;3945;48.952;9.506;2023-05-07T09:08:27;97854.19;;;25.67;50.23
7802;BME280;3945;48.952;9.506;2023-05-07T09:10:54;97849.63;;;25.59;47.75
7802;BME280;3945;48.952;9.506;2023-05-07T09:13:20;97857.22;;;25.41;46.41
7802;BME280;3945;48.952;9.506;2023-05-07T09:15:47;97860.13;;;25.24;45.33
7802;BME280;3945;48.952;9.506;2023-05-07T09:18:13;97864.06;;;25.14;46.26
7802;BME280;3945;48.952;9.506;2023-05-07T09:20:40;97855.00;;;25.10;47.82
7802;BME280;3945;48.952;9.506;2023-05-07T09:23:07;97861.25;;;25.11;46.95
7802;BME280;3945;48.952;9.506;2023-05-07T09:25:35;97853.88;;;25.11;46.95
7802;BME280;3945;48.952;9.506;2023-05-07T09:28:01;97852.66;;;25.21;52.00
7802;BME280;3945;48.952;9.506;2023-05-07T09:30:28;97853.00;;;25.32;50.67
7802;BME280;3945;48.952;9.506;2023-05-07T09:32:55;97856.53;;;25.32;44.72
7802;BME280;3945;48.952;9.506;2023-05-07T09:35:22;97857.22;;;25.41;46.14
7802;BME280;3945;48.952;9.506;2023-05-07T09:37:49;97848.25;;;25.53;46.59
7802;BME280;3945;48.952;9.506;2023-05-07T09:40:23;97845.78;;;25.72;47.35
7802;BME280;3945;48.952;9.506;2023-05-07T09:42:49;97845.06;;;25.87;49.77
7802;BME280;3945;48.952;9.506;2023-05-07T09:45:16;97841.22;;;26.00;49.46
7802;BME280;3945;48.952;9.506;2023-05-07T09:47:47;97844.72;;;26.01;43.68
7802;BME280;3945;48.952;9.506;2023-05-07T09:50:14;97845.50;;;26.01;42.50
7802;BME280;3945;48.952;9.506;2023-05-07T09:52:41;97840.84;;;26.02;43.35
7802;BME280;3945;48.952;9.506;2023-05-07T09:55:08;97847.81;;;25.99;42.82
7802;BME280;3945;48.952;9.506;2023-05-07T09:57:36;97841.81;;;25.70;41.40
7802;BME280;3945;48.952;9.506;2023-05-07T10:00:05;97837.91;;;25.46;43.17
7802;BME280;3945;48.952;9.506;2023-05-07T10:02:33;97836.00;;;25.59;45.38
7802;BME280;3945;48.952;9.506;2023-05-07T10:05:01;97839.66;;;25.75;44.42
7802;BME280;3945;48.952;9.506;2023-05-07T10:07:28;97838.94;;;25.90;44.11
7802;BME280;3945;48.952;9.506;2023-05-07T10:09:55;97834.81;;;26.21;43.83
7802;BME280;3945;48.952;9.506;2023-05-07T10:12:21;97833.75;;;26.37;43.53
7802;BME280;3945;48.952;9.506;2023-05-07T10:14:50;97822.75;;;26.62;47.66
7802;BME280;3945;48.952;9.506;2023-05-07T10:17:18;97821.47;;;26.71;44.69
7802;BME280;3945;48.952;9.506;2023-05-07T10:19:45;97825.00;;;26.72;45.80
7802;BME280;3945;48.952;9.506;2023-05-07T10:22:12;97824.59;;;26.58;43.13
7802;BME280;3945;48.952;9.506;2023-05-07T10:24:39;97824.81;;;26.80;43.91
7802;BME280;3945;48.952;9.506;2023-05-07T10:27:09;97826.03;;;26.95;44.01
7802;BME280;3945;48.952;9.506;2023-05-07T10:29:37;97816.00;;;27.31;46.34
7802;BME280;3945;48.952;9.506;2023-05-07T10:32:14;97815.22;;;27.62;43.56
7802;BME280;3945;48.952;9.506;2023-05-07T10:34:45;97809.91;;;27.69;42.36
7802;BME280;3945;48.952;9.506;2023-05-07T10:37:13;97818.47;;;27.67;40.96
7802;BME280;3945;48.952;9.506;2023-05-07T10:39:39;97811.63;;;27.92;44.21
7802;BME280;3945;48.952;9.506;2023-05-07T10:42:09;97806.19;;;28.12;42.16
7802;BME280;3945;48.952;9.506;2023-05-07T10:44:35;97811.19;;;28.25;43.82
7802;BME280;3945;48.952;9.506;2023-05-07T10:47:03;97805.03;;;28.13;42.60
7802;BME280;3945;48.952;9.506;2023-05-07T10:49:31;97813.09;;;28.06;40.68
7802;BME280;3945;48.952;9.506;2023-05-07T10:54:56;97804.88;;;28.21;43.46
7802;BME280;3945;48.952;9.506;2023-05-07T10:57:35;97799.03;;;28.42;44.81
7802;BME280;3945;48.952;9.506;2023-05-07T11:00:02;97796.94;;;28.74;40.11
7802;BME280;3945;48.952;9.506;2023-05-07T11:05:21;97788.81;;;29.23;39.54
7802;BME280;3945;48.952;9.506;2023-05-07T11:07:53;97791.31;;;29.32;40.10
7802;BME280;3945;48.952;9.506;2023-05-07T11:10:20;97779.06;;;29.48;42.19
7802;BME280;3945;48.952;9.506;2023-05-07T11:12:47;97782.97;;;29.74;39.47
7802;BME280;3945;48.952;9.506;2023-05-07T11:15:13;97785.91;;;29.88;38.51
7802;BME280;3945;48.952;9.506;2023-05-07T11:17:51;97794.94;;;29.62;39.58
7802;BME280;3945;48.952;9.506;2023-05-07T11:20:18;97796.41;;;29.56;40.03
7802;BME280;3945;48.952;9.506;2023-05-07T11:22:46;97783.38;;;29.76;39.31
7802;BME280;3945;48.952;9.506;2023-05-07T11:25:17;97789.16;;;29.94;40.87
7802;BME280;3945;48.952;9.506;2023-05-07T11:27:43;97784.09;;;29.96;38.25
7802;BME280;3945;48.952;9.506;2023-05-07T11:30:10;97781.25;;;29.92;37.95
7802;BME280;3945;48.952;9.506;2023-05-07T11:32:37;97788.94;;;29.79;38.56
7802;BME280;3945;48.952;9.506;2023-05-07T11:35:04;97774.53;;;29.60;37.37
7802;BME280;3945;48.952;9.506;2023-05-07T11:37:31;97776.25;;;29.22;41.27
7802;BME280;3945;48.952;9.506;2023-05-07T11:40:05;97779.25;;;28.91;41.98
7802;BME280;3945;48.952;9.506;2023-05-07T11:42:32;97784.25;;;28.47;40.86
7802;BME280;3945;48.952;9.506;2023-05-07T11:44:59;97787.81;;;27.93;41.92
7802;BME280;3945;48.952;9.506;2023-05-07T11:47:25;97767.22;;;27.48;42.81
7802;BME280;3945;48.952;9.506;2023-05-07T11:49:52;97778.44;;;27.12;42.43
7802;BME280;3945;48.952;9.506;2023-05-07T11:52:19;97778.34;;;26.93;43.65
7802;BME280;3945;48.952;9.506;2023-05-07T11:54:48;97773.69;;;26.93;44.38
7802;BME280;3945;48.952;9.506;2023-05-07T11:57:16;97771.78;;;26.81;43.16
7802;BME280;3945;48.952;9.506;2023-05-07T11:59:42;97766.13;;;26.74;44.59
7802;BME280;3945;48.952;9.506;2023-05-07T12:02:10;97761.47;;;26.75;44.62
7802;BME280;3945;48.952;9.506;2023-05-07T12:04:37;97769.03;;;26.81;45.43
7802;BME280;3945;48.952;9.506;2023-05-07T12:07:04;97777.44;;;26.89;45.75
7802;BME280;3945;48.952;9.506;2023-05-07T12:09:32;97772.72;;;27.01;45.48
7802;BME280;3945;48.952;9.506;2023-05-07T12:12:02;97775.19;;;27.06;45.56
7802;BME280;3945;48.952;9.506;2023-05-07T12:14:30;97770.50;;;26.91;42.34
7802;BME280;3945;48.952;9.506;2023-05-07T12:16:57;97781.22;;;26.84;44.36
7802;BME280;3945;48.952;9.506;2023-05-07T12:19:27;97780.13;;;26.73;43.61
7802;BME280;3945;48.952;9.506;2023-05-07T12:21:54;97785.78;;;26.64;45.05
7802;BME280;3945;48.952;9.506;2023-05-07T12:24:21;97783.34;;;26.47;45.34
7802;BME280;3945;48.952;9.506;2023-05-07T12:26:47;97785.25;;;26.19;43.98
7802;BME280;3945;48.952;9.506;2023-05-07T12:29:14;97790.16;;;26.01;45.03
7802;BME280;3945;48.952;9.506;2023-05-07T12:31:42;97786.13;;;25.83;45.58
7802;BME280;3945;48.952;9.506;2023-05-07T12:34:10;97774.78;;;25.69;45.93
7802;BME280;3945;48.952;9.506;2023-05-07T12:36:36;97777.38;;;25.53;47.23
7802;BME280;3945;48.952;9.506;2023-05-07T12:39:04;97783.75;;;25.33;46.11
7802;BME280;3945;48.952;9.506;2023-05-07T12:41:30;97790.00;;;25.21;46.56
7802;BME280;3945;48.952;9.506;2023-05-07T12:43:56;97789.06;;;25.05;47.83
7802;BME280;3945;48.952;9.506;2023-05-07T12:46:23;97785.16;;;24.94;48.89
7802;BME280;3945;48.952;9.506;2023-05-07T12:48:51;97788.25;;;24.71;47.52
7802;BME280;3945;48.952;9.506;2023-05-07T12:51:18;97791.91;;;24.63;50.86
7802;BME280;3945;48.952;9.506;2023-05-07T12:53:44;97791.91;;;24.63;52.17
7802;BME280;3945;48.952;9.506;2023-05-07T12:56:11;97799.13;;;24.59;51.61
7802;BME280;3945;48.952;9.506;2023-05-07T12:58:37;97786.63;;;24.58;51.73
7802;BME280;3945;48.952;9.506;2023-05-07T13:01:04;97798.66;;;24.57;52.80
7802;BME280;3945;48.952;9.506;2023-05-07T13:03:31;97787.66;;;24.54;53.62
7802;BME280;3945;48.952;9.506;2023-05-07T13:06:00;97797.16;;;24.47;52.00
7802;BME280;3945;48.952;9.506;2023-05-07T13:08:27;97798.16;;;24.43;54.03
7802;BME280;3945;48.952;9.506;2023-05-07T13:10:54;97798.91;;;24.31;57.84
7802;BME280;3945;48.952;9.506;2023-05-07T13:13:20;97801.22;;;24.21;58.28
7802;BME280;3945;48.952;9.506;2023-05-07T13:15:47;97796.81;;;24.07;59.59
7802;BME280;3945;48.952;9.506;2023-05-07T13:18:13;97796.75;;;23.95;60.37
7802;BME280;3945;48.952;9.506;2023-05-07T13:20:39;97801.78;;;23.85;60.67
7802;BME280;3945;48.952;9.506;2023-05-07T13:23:08;97800.31;;;23.66;56.46
7802;BME280;3945;48.952;9.506;2023-05-07T13:25:35;97797.50;;;23.46;54.54
7802;BME280;3945;48.952;9.506;2023-05-07T13:28:01;97797.63;;;23.20;55.21